Flight Track Log - Related Links

Times and Time Zones

All times are in EDT time to prevent confusion due to time zone crossing. See the RPA3446 flight status page for this flight to view local times or setup timezone preferences in your user account.

Time Position Orientation Groundspeed Altitude Reporting Facility
EDT Latitude Longitude Course Direction KTS MPH feet Rate Location/Type
Mon 09:21:03 PM 39.8667 -75.2667 90° East 159 183 800  Level Philadelphia TRACON
Mon 09:21:33 PM 39.8500 -75.3000 237° Southwest 149 171 1,900 2,000 Climbing Philadelphia TRACON
Mon 09:22:33 PM 39.8000 -75.3333 207° Southwest 219 252 3,800 2,200 Climbing Philadelphia TRACON
Mon 09:23:33 PM 39.7500 -75.3833 218° Southwest 280 322 6,300 2,600 Climbing Philadelphia TRACON
Mon 09:24:00 PM 39.7952 -74.7589 105° East  Level FlightAware Approximate
Mon 09:24:33 PM 39.7000 -75.3333 142° Southeast 295 339 9,000  Level Philadelphia TRACON
Mon 09:25:00 PM 39.7954 -74.6394 75° East  Level FlightAware Approximate
Mon 09:25:33 PM 39.7167 -75.2167 79° East 317 365 11,300  Level Philadelphia TRACON
Mon 09:26:00 PM 39.8000 -74.5167 90° East  Level FlightAware Approximate
Mon 09:27:50 PM 39.7561 -74.9508 79° East 344 396 12,000  Level New York Center
Mon 09:28:50 PM 39.7747 -74.8358 78° East 331 381 12,000 900 Level New York Center
Mon 09:29:50 PM 39.7931 -74.7208 78° East 331 381 13,800 1,850 Climbing New York Center
Mon 09:30:50 PM 39.8033 -74.5969 84° East 337 388 15,700 1,950 Climbing New York Center
Mon 09:31:50 PM 39.8536 -74.4672 63° Northeast 347 399 17,700 1,550 Climbing New York Center
Mon 09:32:50 PM 39.9022 -74.3778 55° Northeast 352 405 18,800 1,400 Climbing New York Center
Mon 09:33:50 PM 39.9664 -74.2511 57° Northeast 371 427 20,500 1,550 Climbing New York Center
Mon 09:34:50 PM 40.0261 -74.1322 57° Northeast 382 440 21,900 949 Climbing New York Center
Mon 09:36:28 PM 40.1325 -73.9233 56° Northeast 397 457 23,000 407 Climbing Boston Center
Mon 09:37:32 PM 40.1928 -73.8008 57° Northeast 398 458 23,000  Level Boston Center
Mon 09:38:33 PM 40.2561 -73.6767 56° Northeast 400 460 23,000 197 Level Boston Center
Mon 09:39:34 PM 40.3147 -73.5572 57° Northeast 400 460 23,400 843 Climbing Boston Center
Mon 09:40:34 PM 40.3761 -73.4331 57° Northeast 402 463 24,700 1,289 Climbing Boston Center
Mon 09:41:35 PM 40.4392 -73.3058 57° Northeast 412 474 26,000 1,339 Climbing Boston Center
Mon 09:42:35 PM 40.5022 -73.1786 57° Northeast 414 476 27,400 1,339 Climbing Boston Center
Mon 09:43:36 PM 40.5717 -73.0581 53° Northeast 416 479 28,700 1,248 Climbing Boston Center
Mon 09:44:40 PM 40.6683 -72.9725 34° Northeast 417 480 30,000 1,113 Climbing Boston Center
Mon 09:45:40 PM 40.7661 -72.8847 34° Northeast 418 481 31,000 496 Climbing Boston Center
Mon 09:46:41 PM 40.8636 -72.7953 35° Northeast 425 489 31,000  Level Boston Center
Mon 09:47:43 PM 40.9797 -72.6847 36° Northeast 430 495 31,000  Level Boston Center
Mon 09:48:43 PM 41.0758 -72.5944 35° Northeast 428 493 31,000  Level Boston Center
Mon 09:49:45 PM 41.1717 -72.5050 35° Northeast 426 490 31,000  Level Boston Center
Mon 09:50:45 PM 41.2683 -72.4144 35° Northeast 427 491 31,000  Level Boston Center
Mon 09:51:46 PM 41.3567 -72.3319 35° Northeast 426 490 31,000  Level Boston Center
Mon 09:52:46 PM 41.4533 -72.2408 35° Northeast 426 490 31,000  Level Boston Center
Mon 09:53:46 PM 41.5558 -72.1417 36° Northeast 426 490 31,000  Level Boston Center
Mon 09:54:50 PM 41.6531 -72.0503 35° Northeast 426 490 31,000  Level Boston Center
Mon 09:55:51 PM 41.7475 -71.9581 36° Northeast 426 490 31,000  Level Boston Center
Mon 09:56:52 PM 41.8431 -71.8661 36° Northeast 425 489 31,000  Level Boston Center
Mon 09:57:52 PM 41.9575 -71.7572 35° Northeast 425 489 31,000  Level Boston Center
Mon 09:58:54 PM 42.0525 -71.6642 36° Northeast 425 489 31,000  Level Boston Center
Mon 09:59:55 PM 42.1475 -71.5717 36° Northeast 425 489 31,000  Level Boston Center
Mon 10:00:56 PM 42.2433 -71.4781 36° Northeast 425 489 31,000  Level Boston Center
Mon 10:01:56 PM 42.3406 -71.3828 36° Northeast 425 489 31,000  Level Boston Center
Mon 10:02:57 PM 42.4408 -71.2836 36° Northeast 437 503 31,000  Level Boston Center
Mon 10:03:58 PM 42.5422 -71.1839 36° Northeast 448 516 31,000  Level Boston Center
Mon 10:05:01 PM 42.6433 -71.0831 36° Northeast 448 516 31,000  Level Boston Center
Mon 10:06:02 PM 42.7447 -70.9822 36° Northeast 448 516 31,000  Level Boston Center
Mon 10:07:00 PM 42.8456 -70.8808 36° Northeast 449 517 31,000  Level Boston Center
Mon 10:08:04 PM 42.9472 -70.7792 36° Northeast 450 518 31,000  Level Boston Center
Mon 10:09:03 PM 43.0478 -70.6775 36° Northeast 450 518 31,000  Level Boston Center
Mon 10:10:03 PM 43.1483 -70.5767 36° Northeast 450 518 31,000  Level Boston Center
Mon 10:11:06 PM 43.2689 -70.4528 37° Northeast 452 520 31,000 -240 Level Boston Center
Mon 10:12:08 PM 43.3697 -70.3481 37° Northeast 453 521 30,500 -836 Descending Boston Center
Mon 10:13:08 PM 43.4633 -70.2528 36° Northeast 460 529 29,300 -1,613 Descending Boston Center
Mon 10:14:07 PM 43.5683 -70.1442 37° Northeast 467 537 27,300 -1,983 Descending Boston Center
Mon 10:15:09 PM 43.6700 -70.0403 36° Northeast 455 524 25,300 -1,967 Descending Boston Center
Mon 10:16:09 PM 43.7675 -69.9383 37° Northeast 442 509 23,300 -1,918 Descending Boston Center
Mon 10:17:11 PM 43.8633 -69.8361 38° Northeast 439 505 21,400 -2,016 Descending Boston Center
Mon 10:18:11 PM 43.9750 -69.7192 37° Northeast 420 483 19,200 -1,884 Descending Boston Center
Mon 10:19:12 PM 44.0653 -69.6256 37° Northeast 415 478 17,600 -1,645 Descending Boston Center
Mon 10:20:15 PM 44.1531 -69.5333 37° Northeast 401 461 15,800 -1,742 Descending Boston Center
Mon 10:21:16 PM 44.2414 -69.4375 38° Northeast 394 453 14,000 -1,721 Descending Boston Center
Mon 10:22:17 PM 44.3286 -69.3606 32° Northeast 376 433 12,300 -1,488 Descending Boston Center
Mon 10:23:17 PM 44.4058 -69.3042 28° Northeast 316 364 11,000 -1,438 Descending Boston Center
Mon 10:24:18 PM 44.4753 -69.2517 28° Northeast 296 341 9,400 -1,770 Descending Boston Center
Mon 10:25:19 PM 44.5394 -69.2036 28° Northeast 270 311 7,400 -1,820 Descending Boston Center
Mon 10:26:20 PM 44.6042 -69.1547 28° Northeast 264 304 5,700 -1,636 Descending Boston Center
Mon 10:27:20 PM 44.6686 -69.1067 28° Northeast 264 304 4,100 -1,339 Descending Boston Center
Mon 10:28:21 PM 44.7314 -69.0581 29° Northeast 264 304 3,000 -780 Descending Boston Center
Mon 10:29:23 PM 44.7889 -69.0158 28° Northeast 246 283 2,500 -393 Descending Boston Center
Mon 10:30:23 PM 44.8431 -68.9892 19° North 216 249 2,200 -496 Descending Boston Center
Mon 10:31:24 PM 44.8642 -68.9236 66° East 196 226 1,500 -639 Descending Boston Center
Mon 10:32:25 PM 44.8436 -68.8806 124° Southeast 141 162 900 -595 Descending Boston Center
Mon 10:33:25 PM 44.8189 -68.8458 135° Southeast 130 150 300 -600 Descending Boston Center
Mon 10:35:00 PM 44.8074 -68.8281 35° Northeast  Level Estimated

Login

Don't have an account? Register now (free) for customized features, flight alerts, and more!